createdAt,value
2022-09-20T00:01:32.679Z,100372.19
2022-09-20T00:04:02.453Z,100382.09
2022-09-20T00:06:31.721Z,100328.38
2022-09-20T00:08:59.843Z,100383.59
2022-09-20T00:11:29.721Z,100386.47
2022-09-20T00:13:58.972Z,100384.38
2022-09-20T00:16:35.176Z,100343.41
2022-09-20T00:19:04.289Z,100354.28
2022-09-20T00:21:33.007Z,100346.00
2022-09-20T00:24:00.484Z,100371.53
2022-09-20T00:26:28.328Z,100368.16
2022-09-20T00:28:56.113Z,100366.13
2022-09-20T00:31:23.067Z,100366.53
2022-09-20T00:34:08.299Z,100362.44
2022-09-20T00:36:35.155Z,100362.91
2022-09-20T00:39:03.556Z,100369.97
2022-09-20T00:41:31.869Z,100361.84
2022-09-20T00:43:59.394Z,100361.69
2022-09-20T00:46:43.653Z,100346.09
2022-09-20T00:49:16.498Z,100370.81
2022-09-20T00:51:47.261Z,100342.28
2022-09-20T00:54:20.304Z,100371.00
2022-09-20T00:56:48.481Z,100366.06
2022-09-20T00:59:19.976Z,100339.78
2022-09-20T01:01:52.558Z,100331.22
2022-09-20T01:04:23.131Z,100334.66
2022-09-20T01:06:51.841Z,100352.03
2022-09-20T01:09:18.566Z,100317.59
2022-09-20T01:11:46.701Z,100334.66
2022-09-20T01:14:15.533Z,100346.22
2022-09-20T01:16:42.563Z,100354.22
2022-09-20T01:19:27.456Z,100325.91
2022-09-20T01:21:54.921Z,100352.69
2022-09-20T01:24:38.981Z,100333.03
2022-09-20T01:27:34.019Z,100347.03
2022-09-20T01:30:00.809Z,100344.56
2022-09-20T01:32:52.397Z,100300.84
2022-09-20T01:35:21.540Z,100335.56
2022-09-20T01:38:23.229Z,100340.78
2022-09-20T01:40:51.004Z,100346.91
2022-09-20T01:43:29.765Z,100331.38
2022-09-20T01:46:02.685Z,100313.16
2022-09-20T01:48:32.463Z,100329.53
2022-09-20T01:51:18.068Z,100337.28
2022-09-20T01:54:23.766Z,100334.06
2022-09-20T01:57:27.312Z,100335.91
2022-09-20T01:59:57.098Z,100327.22
2022-09-20T02:02:48.896Z,100327.56
2022-09-20T02:05:48.171Z,100338.59
2022-09-20T02:08:30.333Z,100330.56
2022-09-20T02:11:13.235Z,100324.31
2022-09-20T02:13:40.152Z,100335.78
2022-09-20T02:16:25.125Z,100338.28
2022-09-20T02:19:16.577Z,100324.66
2022-09-20T02:22:21.749Z,100313.47
2022-09-20T02:25:02.112Z,100335.47
2022-09-20T02:27:34.468Z,100327.47
2022-09-20T02:30:07.338Z,100336.09
2022-09-20T02:32:51.984Z,100335.34
2022-09-20T02:35:30.745Z,100332.09
2022-09-20T02:38:11.689Z,100314.72
2022-09-20T02:40:56.950Z,100337.72
2022-09-20T02:43:48.577Z,100331.31
2022-09-20T02:46:38.360Z,100327.66
2022-09-20T02:49:11.390Z,100337.41
2022-09-20T02:51:46.945Z,100324.34
2022-09-20T02:54:19.749Z,100332.31
2022-09-20T02:57:03.069Z,100322.53
2022-09-20T02:59:40.772Z,100354.22
2022-09-20T03:02:12.718Z,100336.78
2022-09-20T03:05:11.380Z,100327.78
2022-09-20T03:07:47.233Z,100327.69
2022-09-20T03:10:33.989Z,100332.44
2022-09-20T03:13:19.285Z,100342.38
2022-09-20T03:15:48.938Z,100340.53
2022-09-20T03:18:38.359Z,100332.09
2022-09-20T03:21:26.911Z,100335.66
2022-09-20T03:24:21.400Z,100337.78
2022-09-20T03:26:57.162Z,100329.03
2022-09-20T03:29:51.631Z,100329.84
2022-09-20T03:32:49.103Z,100331.31
2022-09-20T03:35:45.259Z,100321.59
2022-09-20T03:38:47.453Z,100321.59
2022-09-20T03:41:26.297Z,100321.28
2022-09-20T03:43:52.942Z,100323.41
2022-09-20T03:46:22.973Z,100311.94
2022-09-20T03:49:17.734Z,100319.94
2022-09-20T03:52:14.557Z,100315.91
2022-09-20T03:55:02.715Z,100323.72
2022-09-20T03:57:39.631Z,100310.63
2022-09-20T04:00:12.315Z,100320.78
2022-09-20T04:02:51.302Z,100322.91
2022-09-20T04:05:27.248Z,100322.66
2022-09-20T04:07:59.869Z,100329.03
2022-09-20T04:11:08.437Z,100320.22
2022-09-20T04:13:37.125Z,100326.81
2022-09-20T04:16:41.219Z,100319.84
2022-09-20T04:19:32.152Z,100316.91
2022-09-20T04:22:01.065Z,100320.88
2022-09-20T04:24:30.918Z,100318.44
2022-09-20T04:27:21.083Z,100327.00
2022-09-20T04:29:58.237Z,100291.50
2022-09-20T04:32:48.435Z,100308.63
2022-09-20T04:35:42.266Z,100316.59
2022-09-20T04:38:15.061Z,100297.59
2022-09-20T04:41:07.940Z,100310.06
2022-09-20T04:43:51.394Z,100320.34
2022-09-20T04:46:57.910Z,100298.91
2022-09-20T04:49:39.820Z,100311.53
2022-09-20T04:52:24.770Z,100326.13
2022-09-20T04:55:25.178Z,100308.47
2022-09-20T04:58:33.265Z,100313.69
2022-09-20T05:01:16.945Z,100315.81
2022-09-20T05:04:02.011Z,100320.34
2022-09-20T05:06:47.130Z,100321.44
2022-09-20T05:09:32.557Z,100328.69
2022-09-20T05:12:36.277Z,100319.44
2022-09-20T05:15:10.397Z,100322.19
2022-09-20T05:18:05.080Z,100337.94
2022-09-20T05:20:59.910Z,100328.81
2022-09-20T05:24:06.711Z,100338.53
2022-09-20T05:26:38.967Z,100330.84
2022-09-20T05:29:10.325Z,100341.03
2022-09-20T05:32:14.529Z,100337.72
2022-09-20T05:35:02.496Z,100339.66
2022-09-20T05:37:37.648Z,100347.06
2022-09-20T05:40:22.089Z,100340.09
2022-09-20T05:43:12.160Z,100344.13
2022-09-20T05:45:53.368Z,100342.84
2022-09-20T05:48:22.929Z,100353.59
2022-09-20T05:51:14.317Z,100355.22
2022-09-20T05:53:50.012Z,100350.63
2022-09-20T05:56:35.192Z,100350.25
2022-09-20T05:59:14.296Z,100358.53
2022-09-20T06:02:03.880Z,100327.69
2022-09-20T06:04:40.379Z,100357.88
2022-09-20T06:07:19.503Z,100342.50
2022-09-20T06:10:15.465Z,100344.47
2022-09-20T06:13:09.058Z,100358.53
2022-09-20T06:15:47.093Z,100343.09
2022-09-20T06:18:17.879Z,100354.56
2022-09-20T06:21:00.292Z,100364.22
2022-09-20T06:23:27.537Z,100354.09
2022-09-20T06:26:02.511Z,100340.06
2022-09-20T06:28:42.207Z,100352.75
2022-09-20T06:31:10.702Z,100349.16
2022-09-20T06:33:50.563Z,100361.38
2022-09-20T06:36:38.053Z,100366.97
2022-09-20T06:39:43.808Z,100361.56
2022-09-20T06:42:11.053Z,100367.53
2022-09-20T06:44:43.125Z,100384.34
2022-09-20T06:47:15.552Z,100382.41
2022-09-20T06:49:46.925Z,100357.81
2022-09-20T06:52:15.977Z,100370.56
2022-09-20T06:54:47.207Z,100371.47
2022-09-20T06:57:40.420Z,100383.44
2022-09-20T07:00:10.970Z,100369.28
2022-09-20T07:02:37.722Z,100389.88
2022-09-20T07:05:07.846Z,100398.50
2022-09-20T07:07:34.553Z,100375.97
2022-09-20T07:10:01.381Z,100402.59
2022-09-20T07:12:29.548Z,100354.31
2022-09-20T07:14:56.230Z,100410.47
2022-09-20T07:17:23.168Z,100400.50
2022-09-20T07:19:50.111Z,100397.94
2022-09-20T07:22:17.208Z,100387.34
2022-09-20T07:24:45.030Z,100388.94
2022-09-20T07:27:12.723Z,100385.63
2022-09-20T07:29:41.187Z,100398.53
2022-09-20T07:32:08.587Z,100397.22
2022-09-20T07:34:35.389Z,100402.97
2022-09-20T07:37:02.265Z,100394.91
2022-09-20T07:39:29.524Z,100395.69
2022-09-20T07:41:56.865Z,100407.47
2022-09-20T07:44:28.011Z,100414.06
2022-09-20T07:47:01.343Z,100397.94
2022-09-20T07:49:32.639Z,100410.03
2022-09-20T07:51:59.736Z,100394.13
2022-09-20T07:54:28.136Z,100396.94
2022-09-20T07:56:54.885Z,100410.72
2022-09-20T07:59:21.854Z,100410.88
2022-09-20T08:01:48.899Z,100409.91
2022-09-20T08:04:15.749Z,100403.06
2022-09-20T08:06:44.763Z,100388.94
2022-09-20T08:09:12.921Z,100410.63
2022-09-20T08:11:41.848Z,100384.44
2022-09-20T08:14:13.464Z,100371.50
2022-09-20T08:16:43.211Z,100410.28
2022-09-20T08:19:18.589Z,100404.69
2022-09-20T08:21:45.432Z,100411.34
2022-09-20T08:24:12.392Z,100394.16
2022-09-20T08:26:39.519Z,100406.47
2022-09-20T08:29:06.918Z,100414.19
2022-09-20T08:31:37.071Z,100401.66
2022-09-20T08:34:07.046Z,100401.03
2022-09-20T08:36:37.051Z,100418.22
2022-09-20T08:42:18.650Z,100428.06
2022-09-20T08:45:00.485Z,100430.06
2022-09-20T08:47:35.717Z,100406.97
2022-09-20T08:50:11.487Z,100390.59
2022-09-20T08:52:40.845Z,100421.84
2022-09-20T08:55:28.094Z,100421.91
2022-09-20T08:57:57.668Z,100419.84
2022-09-20T09:00:30.627Z,100428.50
2022-09-20T09:03:01.526Z,100429.00
2022-09-20T09:05:43.375Z,100427.59
2022-09-20T09:08:16.859Z,100417.03
2022-09-20T09:10:55.220Z,100418.91
2022-09-20T09:13:32.175Z,100444.22
2022-09-20T09:16:23.069Z,100425.06
2022-09-20T09:18:53.397Z,100419.91
2022-09-20T09:21:27.952Z,100423.53
2022-09-20T09:24:20.793Z,100414.84
2022-09-20T09:26:47.495Z,100427.56
2022-09-20T09:29:23.497Z,100428.69
2022-09-20T09:31:52.627Z,100412.56
2022-09-20T09:34:39.332Z,100426.25
2022-09-20T09:37:06.047Z,100439.22
2022-09-20T09:39:38.545Z,100435.34
2022-09-20T09:42:26.019Z,100446.38
2022-09-20T09:44:52.737Z,100441.44
2022-09-20T09:47:27.904Z,100427.44
2022-09-20T09:50:06.097Z,100435.19
2022-09-20T09:52:36.634Z,100431.00
2022-09-20T09:55:05.867Z,100430.00
2022-09-20T09:57:54.528Z,100447.25
2022-09-20T10:00:23.734Z,100426.41
2022-09-20T10:03:09.364Z,100449.25
2022-09-20T10:06:10.293Z,100437.28
2022-09-20T10:08:37.721Z,100456.06
2022-09-20T10:11:42.860Z,100443.13
2022-09-20T10:14:23.275Z,100426.03
2022-09-20T10:16:55.909Z,100449.41
2022-09-20T10:19:49.295Z,100431.72
2022-09-20T10:22:31.288Z,100429.03
2022-09-20T10:25:19.875Z,100440.22
2022-09-20T10:28:14.556Z,100435.41
2022-09-20T10:30:57.271Z,100430.78
2022-09-20T10:33:53.208Z,100437.53
2022-09-20T10:36:54.510Z,100418.97
2022-09-20T10:39:27.218Z,100442.59
2022-09-20T10:42:38.243Z,100447.72
2022-09-20T10:46:03.697Z,100430.16
2022-09-20T10:48:42.864Z,100414.66
2022-09-20T10:51:35.483Z,100419.59
2022-09-20T10:54:17.628Z,100425.94
2022-09-20T10:56:50.668Z,100411.81
2022-09-20T10:59:36.326Z,100414.13
2022-09-20T11:02:28.335Z,100412.88
2022-09-20T11:05:00.881Z,100432.88
2022-09-20T11:07:33.744Z,100426.78
2022-09-20T11:10:13.649Z,100395.06
2022-09-20T11:13:11.704Z,100388.69
2022-09-20T11:16:02.687Z,100403.88
2022-09-20T11:18:33.616Z,100398.09
2022-09-20T11:21:11.380Z,100394.66
2022-09-20T11:23:44.327Z,100410.00
2022-09-20T11:26:17.949Z,100388.75
2022-09-20T11:28:51.635Z,100391.16
2022-09-20T11:31:35.909Z,100374.09
2022-09-20T11:34:21.314Z,100385.53
2022-09-20T11:36:54.768Z,100387.25
2022-09-20T11:39:21.392Z,100406.41
2022-09-20T11:41:51.154Z,100372.66
2022-09-20T11:44:20.207Z,100383.38
2022-09-20T11:46:52.839Z,100387.38
2022-09-20T11:49:46.208Z,100391.69
2022-09-20T11:53:06.622Z,100391.34
2022-09-20T11:55:37.214Z,100376.41
2022-09-20T11:58:10.309Z,100366.03
2022-09-20T12:00:41.814Z,100366.22
2022-09-20T12:03:33.047Z,100366.78
2022-09-20T12:06:26.571Z,100367.38
2022-09-20T12:08:54.028Z,100360.34
2022-09-20T12:11:36.351Z,100338.31
2022-09-20T12:14:17.749Z,100354.47
2022-09-20T12:16:47.550Z,100369.59
2022-09-20T12:19:33.065Z,100358.19
2022-09-20T12:21:59.798Z,100374.03
2022-09-20T12:24:45.353Z,100338.97
2022-09-20T12:27:27.827Z,100358.91
2022-09-20T12:30:05.430Z,100353.34
2022-09-20T12:32:35.203Z,100351.28
2022-09-20T12:35:02.225Z,100330.41
2022-09-20T12:37:29.671Z,100358.50
2022-09-20T12:39:56.724Z,100364.00
2022-09-20T12:42:30.548Z,100357.09
2022-09-20T12:45:07.534Z,100354.19
2022-09-20T12:47:37.823Z,100353.22
2022-09-20T12:50:34.155Z,100349.78
2022-09-20T12:53:12.306Z,100335.59
2022-09-20T12:55:55.374Z,100327.78
2022-09-20T12:58:24.374Z,100357.41
2022-09-20T13:01:14.357Z,100357.94
2022-09-20T13:03:42.744Z,100330.84
2022-09-20T13:06:16.742Z,100346.94
2022-09-20T13:08:48.350Z,100324.53
2022-09-20T13:11:41.570Z,100300.66
2022-09-20T13:14:08.381Z,100336.44
2022-09-20T13:16:38.000Z,100320.19
2022-09-20T13:19:33.739Z,100319.88
2022-09-20T13:22:00.399Z,100330.00
2022-09-20T13:24:32.501Z,100320.47
2022-09-20T13:27:07.693Z,100320.16
2022-09-20T13:29:37.704Z,100316.34
2022-09-20T13:32:24.268Z,100314.53
2022-09-20T13:35:12.291Z,100316.03
2022-09-20T13:37:45.391Z,100300.19
2022-09-20T13:40:21.442Z,100305.88
2022-09-20T13:42:50.319Z,100307.22
2022-09-20T13:45:19.672Z,100297.09
2022-09-20T13:47:51.968Z,100300.69
2022-09-20T13:50:21.696Z,100309.69
2022-09-20T13:52:53.560Z,100270.63
2022-09-20T13:55:32.348Z,100278.75
2022-09-20T13:58:09.124Z,100277.16
2022-09-20T14:00:38.430Z,100295.38
2022-09-20T14:03:05.420Z,100304.53
2022-09-20T14:05:32.515Z,100288.97
2022-09-20T14:08:01.372Z,100294.81
2022-09-20T14:10:38.729Z,100279.88
2022-09-20T14:13:08.638Z,100280.31
2022-09-20T14:15:43.926Z,100278.31
2022-09-20T14:18:22.300Z,100274.06
2022-09-20T14:20:53.073Z,100278.97
2022-09-20T14:23:27.848Z,100276.97
2022-09-20T14:26:08.395Z,100278.28
2022-09-20T14:28:35.087Z,100268.84
2022-09-20T14:31:08.822Z,100254.50
2022-09-20T14:33:44.295Z,100255.03
2022-09-20T14:36:16.357Z,100254.66
2022-09-20T14:38:45.675Z,100259.59
2022-09-20T14:41:13.600Z,100241.16
2022-09-20T14:43:42.439Z,100256.47
2022-09-20T14:46:18.391Z,100217.19
2022-09-20T14:48:45.752Z,100260.63
2022-09-20T14:51:18.930Z,100261.47
2022-09-20T14:53:48.632Z,100260.69
2022-09-20T14:56:16.863Z,100255.00
2022-09-20T14:59:07.827Z,100258.31
2022-09-20T15:01:37.968Z,100249.31
2022-09-20T15:04:25.605Z,100256.28
2022-09-20T15:06:53.222Z,100247.72
2022-09-20T15:09:21.959Z,100255.91
2022-09-20T15:12:13.807Z,100252.25
2022-09-20T15:14:41.545Z,100246.13
2022-09-20T15:17:15.547Z,100230.09
2022-09-20T15:19:42.300Z,100245.28
2022-09-20T15:22:12.294Z,100236.19
2022-09-20T15:24:39.356Z,100238.28
2022-09-20T15:27:06.522Z,100224.72
2022-09-20T15:29:33.703Z,100247.66
2022-09-20T15:32:00.527Z,100219.81
2022-09-20T15:34:27.233Z,100246.13
2022-09-20T15:36:54.882Z,100233.00
2022-09-20T15:39:22.562Z,100235.44
2022-09-20T15:41:52.731Z,100228.06
2022-09-20T15:44:19.968Z,100209.22
2022-09-20T15:46:48.533Z,100220.72
2022-09-20T15:49:15.235Z,100241.19
2022-09-20T15:51:41.938Z,100192.44
2022-09-20T15:54:13.814Z,100207.16
2022-09-20T15:56:41.359Z,100228.94
2022-09-20T15:59:10.947Z,100193.28
2022-09-20T16:01:40.033Z,100228.16
2022-09-20T16:04:14.884Z,100213.41
2022-09-20T16:06:43.967Z,100220.38
2022-09-20T16:09:10.953Z,100203.63
2022-09-20T16:11:38.855Z,100199.50
2022-09-20T16:14:06.773Z,100219.19
2022-09-20T16:16:40.434Z,100216.75
2022-09-20T16:19:20.879Z,100193.34
2022-09-20T16:21:58.320Z,100212.63
2022-09-20T16:24:28.186Z,100207.31
2022-09-20T16:26:55.065Z,100214.28
2022-09-20T16:29:26.152Z,100222.88
2022-09-20T16:31:54.612Z,100214.69
2022-09-20T16:34:29.781Z,100215.13
2022-09-20T16:37:17.244Z,100220.00
2022-09-20T16:39:44.552Z,100226.63
2022-09-20T16:42:13.222Z,100216.31
2022-09-20T16:44:44.944Z,100223.31
2022-09-20T16:47:18.290Z,100223.31
2022-09-20T16:49:47.426Z,100224.16
2022-09-20T16:52:14.658Z,100234.41
2022-09-20T16:54:41.393Z,100229.50
2022-09-20T16:57:08.322Z,100227.44
2022-09-20T16:59:35.331Z,100226.22
2022-09-20T17:02:02.235Z,100245.88
2022-09-20T17:04:29.109Z,100240.56
2022-09-20T17:06:55.914Z,100250.41
2022-09-20T17:09:22.713Z,100222.53
2022-09-20T17:11:50.491Z,100250.44
2022-09-20T17:14:19.756Z,100240.97
2022-09-20T17:16:48.172Z,100247.97
2022-09-20T17:19:18.638Z,100228.69
2022-09-20T17:21:51.490Z,100231.53
2022-09-20T17:24:20.567Z,100260.72
2022-09-20T17:26:49.057Z,100254.97
2022-09-20T17:29:17.602Z,100238.13
2022-09-20T17:31:55.139Z,100266.84
2022-09-20T17:34:24.016Z,100263.19
2022-09-20T17:36:51.045Z,100262.75
2022-09-20T17:39:18.734Z,100265.25
2022-09-20T17:41:48.336Z,100262.75
2022-09-20T17:44:16.145Z,100249.66
2022-09-20T17:46:45.485Z,100264.81
2022-09-20T17:49:13.552Z,100260.69
2022-09-20T17:51:52.396Z,100250.81
2022-09-20T17:54:20.308Z,100263.16
2022-09-20T17:56:50.438Z,100265.59
2022-09-20T17:59:19.169Z,100265.97
2022-09-20T18:01:48.741Z,100245.84
2022-09-20T18:04:16.127Z,100251.16
2022-09-20T18:06:48.130Z,100246.22
2022-09-20T18:09:17.032Z,100265.09
2022-09-20T18:11:49.838Z,100257.63
2022-09-20T18:14:18.544Z,100269.53
2022-09-20T18:16:45.624Z,100281.78
2022-09-20T18:19:14.330Z,100272.75
2022-09-20T18:21:41.204Z,100264.91
2022-09-20T18:24:10.016Z,100277.25
2022-09-20T18:26:38.086Z,100270.63
2022-09-20T18:29:08.144Z,100273.91
2022-09-20T18:31:42.312Z,100282.47
2022-09-20T18:34:20.350Z,100249.13
2022-09-20T18:36:52.789Z,100269.69
2022-09-20T18:39:27.472Z,100272.00
2022-09-20T18:41:55.447Z,100268.31
2022-09-20T18:44:23.378Z,100276.84
2022-09-20T18:46:53.151Z,100284.97
2022-09-20T18:49:21.832Z,100289.00
2022-09-20T18:51:49.796Z,100295.88
2022-09-20T18:54:16.629Z,100291.28
2022-09-20T18:56:49.072Z,100248.81
2022-09-20T18:59:27.488Z,100297.22
2022-09-20T19:02:02.440Z,100287.66
2022-09-20T19:05:01.061Z,100289.16
2022-09-20T19:07:28.095Z,100313.41
2022-09-20T19:10:16.001Z,100304.31
2022-09-20T19:12:56.802Z,100300.81
2022-09-20T19:15:42.036Z,100322.97
2022-09-20T19:18:24.518Z,100311.44
2022-09-20T19:21:18.672Z,100315.91
2022-09-20T19:24:03.349Z,100324.88
2022-09-20T19:26:32.511Z,100327.66
2022-09-20T19:29:00.395Z,100321.50
2022-09-20T19:31:30.185Z,100335.56
2022-09-20T19:33:59.709Z,100333.91
2022-09-20T19:36:38.993Z,100340.53
2022-09-20T19:39:18.694Z,100347.16
2022-09-20T19:42:00.440Z,100349.94
2022-09-20T19:45:14.330Z,100352.66
2022-09-20T19:47:47.499Z,100358.75
2022-09-20T19:50:27.274Z,100359.47
2022-09-20T19:52:56.360Z,100331.34
2022-09-20T19:55:23.456Z,100370.69
2022-09-20T19:57:51.131Z,100342.16
2022-09-20T20:00:20.677Z,100367.25
2022-09-20T20:02:47.837Z,100377.16
2022-09-20T20:05:17.704Z,100372.31
2022-09-20T20:08:09.037Z,100382.84
2022-09-20T20:10:54.231Z,100385.53
2022-09-20T20:13:59.409Z,100362.56
2022-09-20T20:16:55.351Z,100380.75
2022-09-20T20:19:22.141Z,100399.69
2022-09-20T20:22:19.398Z,100393.53
2022-09-20T20:24:53.868Z,100389.31
2022-09-20T20:27:21.141Z,100392.63
2022-09-20T20:29:48.164Z,100377.25
2022-09-20T20:32:15.480Z,100397.88
2022-09-20T20:34:42.469Z,100396.31
2022-09-20T20:37:09.399Z,100397.59
2022-09-20T20:39:36.276Z,100391.28
2022-09-20T20:42:08.510Z,100376.66
2022-09-20T20:44:35.318Z,100383.19
2022-09-20T20:47:06.844Z,100382.38
2022-09-20T20:49:33.897Z,100401.72
2022-09-20T20:52:04.834Z,100390.66
2022-09-20T20:54:32.803Z,100384.06
2022-09-20T20:56:59.893Z,100276.81
2022-09-20T20:59:26.932Z,100270.38
2022-09-20T21:01:54.010Z,100329.59
2022-09-20T21:04:21.862Z,100276.66
2022-09-20T21:06:50.300Z,100383.66
2022-09-20T21:09:19.723Z,100326.59
2022-09-20T21:11:48.619Z,100387.38
2022-09-20T21:14:32.063Z,100117.03
2022-09-20T21:17:05.197Z,100113.03
2022-09-20T21:19:32.152Z,100337.97
2022-09-20T21:21:59.227Z,100301.00
2022-09-20T21:24:26.097Z,100343.81
2022-09-20T21:26:53.815Z,100367.41
2022-09-20T21:29:21.001Z,100349.63
2022-09-20T21:31:47.956Z,100326.16
2022-09-20T21:34:16.274Z,100122.16
2022-09-20T21:36:44.866Z,100346.38
2022-09-20T21:39:12.307Z,100373.66
2022-09-20T21:41:40.306Z,100334.38
2022-09-20T21:44:10.818Z,100326.69
2022-09-20T21:46:42.825Z,100319.50
2022-09-20T21:49:11.482Z,100334.78
2022-09-20T21:51:40.360Z,100281.28
2022-09-20T21:54:07.511Z,100355.81
2022-09-20T21:56:39.042Z,100371.94
2022-09-20T21:59:06.444Z,100377.28
2022-09-20T22:01:39.049Z,100352.84
2022-09-20T22:04:08.245Z,100330.31
2022-09-20T22:06:37.573Z,100383.31
2022-09-20T22:09:08.113Z,100360.22
2022-09-20T22:11:43.346Z,100362.59
2022-09-20T22:14:12.474Z,100348.56
2022-09-20T22:16:47.017Z,100309.72
2022-09-20T22:19:17.541Z,100378.22
2022-09-20T22:21:46.977Z,100331.22
2022-09-20T22:24:15.285Z,100273.03
2022-09-20T22:26:44.769Z,100207.50
2022-09-20T22:29:12.091Z,100367.69
2022-09-20T22:31:47.722Z,100288.22
2022-09-20T22:34:22.580Z,100329.59
2022-09-20T22:36:49.760Z,100255.19
2022-09-20T22:39:17.209Z,100345.13
2022-09-20T22:41:45.045Z,100337.31
2022-09-20T22:44:12.067Z,100337.56
2022-09-20T22:46:39.462Z,100357.44
2022-09-20T22:49:07.397Z,100283.56
2022-09-20T22:51:34.807Z,100320.16
2022-09-20T22:54:06.484Z,100281.09
2022-09-20T22:56:34.584Z,100336.66
2022-09-20T22:59:11.985Z,100355.72
2022-09-20T23:01:48.099Z,100351.13
2022-09-20T23:04:17.702Z,100334.19
2022-09-20T23:06:52.065Z,100331.28
2022-09-20T23:09:19.089Z,100346.50
2022-09-20T23:11:46.894Z,100317.56
2022-09-20T23:14:17.369Z,100339.22
2022-09-20T23:16:44.728Z,100331.63
2022-09-20T23:19:12.728Z,100292.94
2022-09-20T23:21:40.983Z,100344.47
2022-09-20T23:24:11.115Z,100323.06
2022-09-20T23:26:39.815Z,100342.44
2022-09-20T23:29:09.325Z,100348.97
2022-09-20T23:31:37.801Z,100309.38
2022-09-20T23:34:06.765Z,100269.00
2022-09-20T23:36:36.516Z,100307.25
2022-09-20T23:39:03.187Z,100324.00
2022-09-20T23:41:30.334Z,100281.97
2022-09-20T23:43:57.308Z,100274.41
2022-09-20T23:46:26.200Z,100320.63
2022-09-20T23:48:53.548Z,100325.59
2022-09-20T23:51:23.608Z,100322.28
2022-09-20T23:53:52.020Z,100294.50
2022-09-20T23:56:20.117Z,100282.50
2022-09-20T23:58:47.430Z,100323.03
